Del Norte — WDC2280 — position and weather

sailwx.info

Track history (hours):
 
Tides and Currents Weather Stations Pressure Air Temp Water Temp Dewpoint Dewpoint Depression Visibility Wind Speed Wind Dir Waves Ship Positions

Del Norte

Owner: Golden Gate Bridge,Hwy & Transportation District, Larkspur, CA. More information available from US FCC via Universal Licensing System and Coast Guard Vessel Documentation Center.

Last reported at 2016-May-25 12:33 UTC. Time now 2016-May-25 13:07 UTC.
Position N 37°57' W 122°31'.

Length 48 m.

Type: High speed craft. MMSI: 366990520.

Date/timePositionNaut miles runAvg speedWind from/ knotsBaromVisibWave heightAir tempDewpointWater temp
2016-May-25 12:33N 37°57' W 122°31'0 0.0
2016-May-25 03:32N 37°57' W 122°31'7 6.7
2016-May-25 02:33N 37°52' W 122°25'7 6.5
2016-May-25 01:33N 37°57' W 122°30'7 6.5
2016-May-25 00:33N 37°52' W 122°25'4 4.2
2016-May-24 23:33N 37°48' W 122°24'1010.4
2016-May-24 22:33N 37°57' W 122°30'5 4.7
2016-May-24 21:33N 37°53' W 122°26'5 4.6
2016-May-24 20:32N 37°57' W 122°31'9 8.9
2016-May-24 19:33N 37°50' W 122°24'9 8.6
2016-May-24 18:33N 37°57' W 122°30'8 7.9
2016-May-24 17:33N 37°51' W 122°24'7 6.7
2016-May-24 16:33N 37°56' W 122°29'2 1.6
2016-May-24 15:33N 37°55' W 122°27'8 7.9
2016-May-24 14:34N 37°48' W 122°24'4 4.3
2016-May-24 13:33N 37°52' W 122°25'7 6.6
2016-May-24 12:33N 37°57' W 122°31'0 0.0
2016-May-24 03:05N 37°57' W 122°31'712.7
2016-May-24 02:34N 37°52' W 122°24'7 6.6
2016-May-24 01:33N 37°57' W 122°30'6 6.5
2016-May-24 00:34N 37°52' W 122°25'4 4.3
2016-May-23 23:34N 37°48' W 122°24'1010.4
2016-May-23 22:33N 37°57' W 122°30'4 4.3
2016-May-23 21:33N 37°54' W 122°26'4 4.4
2016-May-23 20:33N 37°57' W 122°31'9 9.1
2016-May-23 19:33N 37°50' W 122°23'9 8.9
2016-May-23 18:33N 37°57' W 122°30'7 6.7
2016-May-23 17:34N 37°52' W 122°25'6 5.6
2016-May-23 16:34N 37°56' W 122°29'1 0.8
2016-May-23 15:33N 37°56' W 122°28'9 8.8
2016-May-23 14:33N 37°48' W 122°24'3 3.5
2016-May-23 13:34N 37°51' W 122°24'7 7.4
2016-May-23 12:33N 37°57' W 122°31'2 0.2
2016-May-23 02:34N 37°55' W 122°28'4 4.2
2016-May-23 01:33N 37°51' W 122°29'5 5.4
2016-May-23 00:34N 37°48' W 122°24'1010.4
2016-May-22 23:33N 37°57' W 122°31'1010.5
2016-May-22 22:34N 37°48' W 122°24'0 0.0
2016-May-22 21:33N 37°48' W 122°24'1010.3
2016-May-22 20:32N 37°57' W 122°31'1010.7
2016-May-22 19:34N 37°48' W 122°24'1010.4
2016-May-22 18:33N 37°57' W 122°31'10 0.6
2016-May-22 02:33N 37°49' W 122°23'5 5.2
2016-May-22 01:34N 37°51' W 122°29'5 5.4
2016-May-22 00:33N 37°48' W 122°24'1010.5
2016-May-21 23:33N 37°57' W 122°30'1010.4
2016-May-21 22:33N 37°48' W 122°24'0 0.1
2016-May-21 21:33N 37°48' W 122°24'1010.5
2016-May-21 20:33N 37°57' W 122°31'1010.5
2016-May-21 19:34N 37°48' W 122°24'1010.4
2016-May-21 18:33N 37°57' W 122°31'0 0.0
2016-May-21 17:32N 37°57' W 122°31'10 0.8
2016-May-21 04:33N 37°48' W 122°24'9 9.4
2016-May-21 03:34N 37°56' W 122°29'1 0.9
2016-May-21 02:33N 37°57' W 122°30'1010.2
2016-May-21 01:33N 37°48' W 122°24'1010.4
2016-May-21 00:33N 37°57' W 122°30'7 6.7
2016-May-20 23:34N 37°52' W 122°25'4 4.0
2016-May-20 22:34N 37°48' W 122°24'1010.4
2016-May-20 21:33N 37°57' W 122°31'9 9.3
2016-May-20 20:33N 37°49' W 122°23'9 8.8
2016-May-20 19:30N 37°57' W 122°30'7 7.7
2016-May-20 18:34N 37°51' W 122°25'3 3.3
2016-May-20 17:34N 37°54' W 122°26'1 1.3
2016-May-20 16:34N 37°53' W 122°26'5 5.4
2016-May-20 15:33N 37°48' W 122°24'8 7.6
2016-May-20 14:34N 37°55' W 122°27'3 3.2
2016-May-20 13:33N 37°57' W 122°31'7 0.6
2016-May-20 02:34N 37°52' W 122°24'7 6.7
2016-May-20 01:33N 37°57' W 122°30'6 6.5
2016-May-20 00:34N 37°52' W 122°25'4 4.1
2016-May-19 23:34N 37°48' W 122°24'9 8.0
2016-May-19 22:24N 37°56' W 122°29'4 4.6
2016-May-19 21:33N 37°53' W 122°26'5 5.1
2016-May-19 20:33N 37°57' W 122°31'9 8.8
2016-May-19 19:33N 37°50' W 122°24'9 8.7
2016-May-19 18:33N 37°57' W 122°30'7 7.2
2016-May-19 17:34N 37°51' W 122°24'5 5.5
2016-May-19 16:33N 37°56' W 122°28'0 0.3
2016-May-19 15:33N 37°56' W 122°28'9 8.6
2016-May-19 14:33N 37°48' W 122°24'4 4.1
2016-May-19 13:33N 37°52' W 122°24'7 6.9
2016-May-19 12:34N 37°57' W 122°31'0 0.0
2016-May-19 03:20N 37°57' W 122°31'810.0
2016-May-19 02:33N 37°51' W 122°24'8 7.7
2016-May-19 01:33N 37°57' W 122°30'5 5.4
2016-May-19 00:33N 37°53' W 122°25'5 5.2
2016-May-18 23:34N 37°48' W 122°24'1010.3
2016-May-18 22:33N 37°57' W 122°30'2 2.2
2016-May-18 21:33N 37°56' W 122°28'2 2.2
2016-May-18 20:33N 37°57' W 122°31'9 8.8
2016-May-18 19:33N 37°50' W 122°23'9 8.8
2016-May-18 18:33N 37°57' W 122°31'7 7.0
2016-May-18 17:33N 37°51' W 122°25'6 6.0
2016-May-18 16:33N 37°56' W 122°29'2 1.6
2016-May-18 15:33N 37°55' W 122°28'8 8.1
2016-May-18 14:33N 37°48' W 122°23'3 2.5
2016-May-18 13:33N 37°50' W 122°24'8 8.3
2016-May-18 12:33N 37°57' W 122°31'0 0.0
2016-May-18 03:21N 37°57' W 122°31'7 9.1
2016-May-18 02:34N 37°52' W 122°24'7 7.1
2016-May-18 01:33N 37°57' W 122°30'6 6.0
2016-May-18 00:34N 37°52' W 122°25'5 4.7
2016-May-17 23:33N 37°48' W 122°23'1010.4
2016-May-17 22:33N 37°57' W 122°30'3 3.0
2016-May-17 21:34N 37°55' W 122°27'3 3.0
2016-May-17 20:33N 37°57' W 122°31'9 8.6
2016-May-17 19:34N 37°50' W 122°24'8 8.5
2016-May-17 18:33N 37°57' W 122°30'7 7.2
2016-May-17 17:34N 37°51' W 122°25'6 6.1
2016-May-17 16:34N 37°56' W 122°29'1 1.2
2016-May-17 15:33N 37°55' W 122°28'8 8.3
2016-May-17 14:33N 37°48' W 122°24'4 3.6
2016-May-17 13:34N 37°51' W 122°24'7 7.3
2016-May-17 12:33N 37°57' W 122°31'0 0.0
2016-May-17 03:19N 37°57' W 122°31'7 9.4
2016-May-17 02:33N 37°52' W 122°24'7 7.1
2016-May-17 01:34N 37°57' W 122°30'5 5.2
2016-May-17 00:33N 37°53' W 122°26'5 5.4
2016-May-16 23:33N 37°48' W 122°23'1010.3
2016-May-16 22:33N 37°57' W 122°30'5 5.0
2016-May-16 21:34N 37°53' W 122°26'3 3.3
2016-May-16 20:33N 37°50' W 122°24'8 8.2
2016-May-16 19:33N 37°57' W 122°30'8 7.6
2016-May-16 18:34N 37°51' W 122°24'7 6.6
2016-May-16 17:33N 37°56' W 122°29'4 4.0
2016-May-16 16:33N 37°53' W 122°26'6 5.6
2016-May-16 15:33N 37°48' W 122°24'5 5.1
2016-May-16 14:33N 37°53' W 122°25'6 5.5
2016-May-16 13:30N 37°57' W 122°31'10 0.8
2016-May-16 00:34N 37°48' W 122°23'1010.3
2016-May-15 23:33N 37°57' W 122°30'1010.3
2016-May-15 22:33N 37°48' W 122°24'0 0.3
2016-May-15 21:34N 37°48' W 122°23'1010.4
2016-May-15 20:33N 37°57' W 122°30'1010.4
2016-May-15 19:33N 37°48' W 122°24'1010.6
2016-May-15 18:33N 37°57' W 122°30'  
Track history (hours):
 
Tides and Currents Weather Stations Pressure Air Temp Water Temp Dewpoint Dewpoint Depression Visibility Wind Speed Wind Dir Waves Ship Positions

Del Norte

Owner: Golden Gate Bridge,Hwy & Transportation District, Larkspur, CA. More information available from US FCC via Universal Licensing System and Coast Guard Vessel Documentation Center.

Last reported at 2016-May-25 12:33 UTC. Time now 2016-May-25 13:07 UTC.
Position N 37°57' W 122°31'.

Length 48 m.

Type: High speed craft. MMSI: 366990520.

Date/timePositionNaut miles runAvg speedWind from/ knotsBaromVisibWave heightAir tempDewpointWater temp
2016-May-25 12:33N 37°57' W 122°31'0 0.0
2016-May-25 03:32N 37°57' W 122°31'7 6.7
2016-May-25 02:33N 37°52' W 122°25'7 6.5
2016-May-25 01:33N 37°57' W 122°30'7 6.5
2016-May-25 00:33N 37°52' W 122°25'4 4.2
2016-May-24 23:33N 37°48' W 122°24'1010.4
2016-May-24 22:33N 37°57' W 122°30'5 4.7
2016-May-24 21:33N 37°53' W 122°26'5 4.6
2016-May-24 20:32N 37°57' W 122°31'9 8.9
2016-May-24 19:33N 37°50' W 122°24'9 8.6
2016-May-24 18:33N 37°57' W 122°30'8 7.9
2016-May-24 17:33N 37°51' W 122°24'7 6.7
2016-May-24 16:33N 37°56' W 122°29'2 1.6
2016-May-24 15:33N 37°55' W 122°27'8 7.9
2016-May-24 14:34N 37°48' W 122°24'4 4.3
2016-May-24 13:33N 37°52' W 122°25'7 6.6
2016-May-24 12:33N 37°57' W 122°31'0 0.0
2016-May-24 03:05N 37°57' W 122°31'712.7
2016-May-24 02:34N 37°52' W 122°24'7 6.6
2016-May-24 01:33N 37°57' W 122°30'6 6.5
2016-May-24 00:34N 37°52' W 122°25'4 4.3
2016-May-23 23:34N 37°48' W 122°24'1010.4
2016-May-23 22:33N 37°57' W 122°30'4 4.3
2016-May-23 21:33N 37°54' W 122°26'4 4.4
2016-May-23 20:33N 37°57' W 122°31'9 9.1
2016-May-23 19:33N 37°50' W 122°23'9 8.9
2016-May-23 18:33N 37°57' W 122°30'7 6.7
2016-May-23 17:34N 37°52' W 122°25'6 5.6
2016-May-23 16:34N 37°56' W 122°29'1 0.8
2016-May-23 15:33N 37°56' W 122°28'9 8.8
2016-May-23 14:33N 37°48' W 122°24'3 3.5
2016-May-23 13:34N 37°51' W 122°24'7 7.4
2016-May-23 12:33N 37°57' W 122°31'2 0.2
2016-May-23 02:34N 37°55' W 122°28'4 4.2
2016-May-23 01:33N 37°51' W 122°29'5 5.4
2016-May-23 00:34N 37°48' W 122°24'1010.4
2016-May-22 23:33N 37°57' W 122°31'1010.5
2016-May-22 22:34N 37°48' W 122°24'0 0.0
2016-May-22 21:33N 37°48' W 122°24'1010.3
2016-May-22 20:32N 37°57' W 122°31'1010.7
2016-May-22 19:34N 37°48' W 122°24'1010.4
2016-May-22 18:33N 37°57' W 122°31'10 0.6
2016-May-22 02:33N 37°49' W 122°23'5 5.2
2016-May-22 01:34N 37°51' W 122°29'5 5.4
2016-May-22 00:33N 37°48' W 122°24'1010.5
2016-May-21 23:33N 37°57' W 122°30'1010.4
2016-May-21 22:33N 37°48' W 122°24'0 0.1
2016-May-21 21:33N 37°48' W 122°24'1010.5
2016-May-21 20:33N 37°57' W 122°31'1010.5
2016-May-21 19:34N 37°48' W 122°24'1010.4
2016-May-21 18:33N 37°57' W 122°31'0 0.0
2016-May-21 17:32N 37°57' W 122°31'10 0.8
2016-May-21 04:33N 37°48' W 122°24'9 9.4
2016-May-21 03:34N 37°56' W 122°29'1 0.9
2016-May-21 02:33N 37°57' W 122°30'1010.2
2016-May-21 01:33N 37°48' W 122°24'1010.4
2016-May-21 00:33N 37°57' W 122°30'7 6.7
2016-May-20 23:34N 37°52' W 122°25'4 4.0
2016-May-20 22:34N 37°48' W 122°24'1010.4
2016-May-20 21:33N 37°57' W 122°31'9 9.3
2016-May-20 20:33N 37°49' W 122°23'9 8.8
2016-May-20 19:30N 37°57' W 122°30'7 7.7
2016-May-20 18:34N 37°51' W 122°25'3 3.3
2016-May-20 17:34N 37°54' W 122°26'1 1.3
2016-May-20 16:34N 37°53' W 122°26'5 5.4
2016-May-20 15:33N 37°48' W 122°24'8 7.6
2016-May-20 14:34N 37°55' W 122°27'3 3.2
2016-May-20 13:33N 37°57' W 122°31'7 0.6
2016-May-20 02:34N 37°52' W 122°24'7 6.7
2016-May-20 01:33N 37°57' W 122°30'6 6.5
2016-May-20 00:34N 37°52' W 122°25'4 4.1
2016-May-19 23:34N 37°48' W 122°24'9 8.0
2016-May-19 22:24N 37°56' W 122°29'4 4.6
2016-May-19 21:33N 37°53' W 122°26'5 5.1
2016-May-19 20:33N 37°57' W 122°31'9 8.8
2016-May-19 19:33N 37°50' W 122°24'9 8.7
2016-May-19 18:33N 37°57' W 122°30'7 7.2
2016-May-19 17:34N 37°51' W 122°24'5 5.5
2016-May-19 16:33N 37°56' W 122°28'0 0.3
2016-May-19 15:33N 37°56' W 122°28'9 8.6
2016-May-19 14:33N 37°48' W 122°24'4 4.1
2016-May-19 13:33N 37°52' W 122°24'7 6.9
2016-May-19 12:34N 37°57' W 122°31'0 0.0
2016-May-19 03:20N 37°57' W 122°31'810.0
2016-May-19 02:33N 37°51' W 122°24'8 7.7
2016-May-19 01:33N 37°57' W 122°30'5 5.4
2016-May-19 00:33N 37°53' W 122°25'5 5.2
2016-May-18 23:34N 37°48' W 122°24'1010.3
2016-May-18 22:33N 37°57' W 122°30'2 2.2
2016-May-18 21:33N 37°56' W 122°28'2 2.2
2016-May-18 20:33N 37°57' W 122°31'9 8.8
2016-May-18 19:33N 37°50' W 122°23'9 8.8
2016-May-18 18:33N 37°57' W 122°31'7 7.0
2016-May-18 17:33N 37°51' W 122°25'6 6.0
2016-May-18 16:33N 37°56' W 122°29'2 1.6
2016-May-18 15:33N 37°55' W 122°28'8 8.1
2016-May-18 14:33N 37°48' W 122°23'3 2.5
2016-May-18 13:33N 37°50' W 122°24'8 8.3
2016-May-18 12:33N 37°57' W 122°31'0 0.0
2016-May-18 03:21N 37°57' W 122°31'7 9.1
2016-May-18 02:34N 37°52' W 122°24'7 7.1
2016-May-18 01:33N 37°57' W 122°30'6 6.0
2016-May-18 00:34N 37°52' W 122°25'5 4.7
2016-May-17 23:33N 37°48' W 122°23'1010.4
2016-May-17 22:33N 37°57' W 122°30'3 3.0
2016-May-17 21:34N 37°55' W 122°27'3 3.0
2016-May-17 20:33N 37°57' W 122°31'9 8.6
2016-May-17 19:34N 37°50' W 122°24'8 8.5
2016-May-17 18:33N 37°57' W 122°30'7 7.2
2016-May-17 17:34N 37°51' W 122°25'6 6.1
2016-May-17 16:34N 37°56' W 122°29'1 1.2
2016-May-17 15:33N 37°55' W 122°28'8 8.3
2016-May-17 14:33N 37°48' W 122°24'4 3.6
2016-May-17 13:34N 37°51' W 122°24'7 7.3
2016-May-17 12:33N 37°57' W 122°31'0 0.0
2016-May-17 03:19N 37°57' W 122°31'7 9.4
2016-May-17 02:33N 37°52' W 122°24'7 7.1
2016-May-17 01:34N 37°57' W 122°30'5 5.2
2016-May-17 00:33N 37°53' W 122°26'5 5.4
2016-May-16 23:33N 37°48' W 122°23'1010.3
2016-May-16 22:33N 37°57' W 122°30'5 5.0
2016-May-16 21:34N 37°53' W 122°26'3 3.3
2016-May-16 20:33N 37°50' W 122°24'8 8.2
2016-May-16 19:33N 37°57' W 122°30'8 7.6
2016-May-16 18:34N 37°51' W 122°24'7 6.6
2016-May-16 17:33N 37°56' W 122°29'4 4.0
2016-May-16 16:33N 37°53' W 122°26'6 5.6
2016-May-16 15:33N 37°48' W 122°24'5 5.1
2016-May-16 14:33N 37°53' W 122°25'6 5.5
2016-May-16 13:30N 37°57' W 122°31'10 0.8
2016-May-16 00:34N 37°48' W 122°23'1010.3
2016-May-15 23:33N 37°57' W 122°30'1010.3
2016-May-15 22:33N 37°48' W 122°24'0 0.3
2016-May-15 21:34N 37°48' W 122°23'1010.4
2016-May-15 20:33N 37°57' W 122°30'1010.4
2016-May-15 19:33N 37°48' W 122°24'1010.6
2016-May-15 18:33N 37°57' W 122°30'  

Dump ship's entire track history